createdAt,value
2023-04-13T00:00:56.000Z,0
2023-04-13T00:02:13.000Z,0
2023-04-13T00:03:29.000Z,0
2023-04-13T00:04:45.000Z,0
2023-04-13T00:06:01.000Z,0
2023-04-13T00:07:18.000Z,0
2023-04-13T00:08:35.000Z,0
2023-04-13T00:09:51.000Z,0
2023-04-13T00:11:08.000Z,0
2023-04-13T00:12:24.000Z,0
2023-04-13T00:13:41.000Z,0
2023-04-13T00:14:57.000Z,0
2023-04-13T00:16:14.000Z,0
2023-04-13T00:17:30.000Z,0
2023-04-13T00:18:47.000Z,0
2023-04-13T00:20:03.000Z,0
2023-04-13T00:21:19.000Z,0
2023-04-13T00:22:36.000Z,0
2023-04-13T00:23:52.000Z,0
2023-04-13T00:25:09.000Z,0
2023-04-13T00:26:25.000Z,0
2023-04-13T00:27:42.000Z,0
2023-04-13T00:28:58.000Z,0
2023-04-13T00:30:15.000Z,0
2023-04-13T00:31:31.000Z,0
2023-04-13T00:32:48.000Z,0
2023-04-13T00:34:05.000Z,0
2023-04-13T00:35:21.000Z,0
2023-04-13T00:36:38.000Z,0
2023-04-13T00:39:10.000Z,0
2023-04-13T00:40:27.000Z,0
2023-04-13T00:41:43.000Z,0
2023-04-13T00:43:00.000Z,0
2023-04-13T00:44:16.000Z,0
2023-04-13T00:45:33.000Z,0
2023-04-13T00:46:49.000Z,0
2023-04-13T00:48:06.000Z,0
2023-04-13T00:49:22.000Z,0
2023-04-13T00:50:39.000Z,0
2023-04-13T00:51:55.000Z,0
2023-04-13T00:53:12.000Z,0
2023-04-13T00:54:28.000Z,0
2023-04-13T00:55:44.000Z,0
2023-04-13T00:57:01.000Z,0
2023-04-13T00:58:17.000Z,0
2023-04-13T00:59:34.000Z,0
2023-04-13T01:00:50.000Z,0
2023-04-13T01:02:07.000Z,0
2023-04-13T01:03:23.000Z,0
2023-04-13T01:04:40.000Z,0
2023-04-13T01:05:57.000Z,0
2023-04-13T01:07:13.000Z,0
2023-04-13T01:08:30.000Z,0
2023-04-13T01:09:46.000Z,0
2023-04-13T01:11:02.000Z,0
2023-04-13T01:12:19.000Z,0
2023-04-13T01:13:35.000Z,0
2023-04-13T01:14:52.000Z,0
2023-04-13T01:16:08.000Z,0
2023-04-13T01:17:25.000Z,0
2023-04-13T01:18:41.000Z,0
2023-04-13T01:19:58.000Z,0
2023-04-13T01:21:14.000Z,0
2023-04-13T01:22:31.000Z,0
2023-04-13T01:23:47.000Z,0
2023-04-13T01:25:04.000Z,0
2023-04-13T01:26:20.000Z,0
2023-04-13T01:27:36.000Z,0
2023-04-13T01:28:53.000Z,0
2023-04-13T01:30:09.000Z,0
2023-04-13T01:31:26.000Z,0
2023-04-13T01:32:42.000Z,0
2023-04-13T01:33:59.000Z,0
2023-04-13T01:35:15.000Z,0
2023-04-13T01:36:32.000Z,0
2023-04-13T01:37:49.000Z,0
2023-04-13T01:39:05.000Z,0
2023-04-13T01:40:22.000Z,0
2023-04-13T01:41:38.000Z,0
2023-04-13T01:42:55.000Z,0
2023-04-13T01:44:11.000Z,0
2023-04-13T01:45:27.000Z,0
2023-04-13T01:46:44.000Z,0
2023-04-13T01:48:00.000Z,0
2023-04-13T01:49:17.000Z,0
2023-04-13T01:50:33.000Z,0
2023-04-13T01:51:50.000Z,0
2023-04-13T01:53:06.000Z,0
2023-04-13T01:54:23.000Z,0
2023-04-13T01:55:39.000Z,0
2023-04-13T01:56:56.000Z,0
2023-04-13T01:58:12.000Z,0
2023-04-13T01:59:29.000Z,0
2023-04-13T02:00:45.000Z,0
2023-04-13T02:02:01.000Z,0
2023-04-13T02:03:18.000Z,0
2023-04-13T02:04:34.000Z,0
2023-04-13T02:05:51.000Z,0
2023-04-13T02:07:07.000Z,0
2023-04-13T02:08:24.000Z,0
2023-04-13T02:09:41.000Z,0
2023-04-13T02:10:57.000Z,0
2023-04-13T02:12:14.000Z,0
2023-04-13T02:13:30.000Z,0
2023-04-13T02:14:47.000Z,0
2023-04-13T02:16:03.000Z,0
2023-04-13T02:17:20.000Z,0
2023-04-13T02:18:36.000Z,0
2023-04-13T02:19:52.000Z,0
2023-04-13T02:21:09.000Z,0
2023-04-13T02:22:25.000Z,0
2023-04-13T02:23:41.000Z,0
2023-04-13T02:24:58.000Z,0
2023-04-13T02:26:14.000Z,0
2023-04-13T02:27:31.000Z,0
2023-04-13T02:28:47.000Z,0
2023-04-13T02:30:04.000Z,0
2023-04-13T02:31:20.000Z,0
2023-04-13T02:32:37.000Z,0
2023-04-13T02:33:53.000Z,0
2023-04-13T02:35:10.000Z,0
2023-04-13T02:36:26.000Z,0
2023-04-13T02:37:43.000Z,0
2023-04-13T02:38:59.000Z,0
2023-04-13T02:40:15.000Z,0
2023-04-13T02:41:32.000Z,0
2023-04-13T02:42:48.000Z,0
2023-04-13T02:44:05.000Z,0
2023-04-13T02:45:21.000Z,0
2023-04-13T02:46:38.000Z,0
2023-04-13T02:47:55.000Z,0
2023-04-13T02:49:11.000Z,0
2023-04-13T02:50:28.000Z,0
2023-04-13T02:51:44.000Z,0
2023-04-13T02:53:01.000Z,0
2023-04-13T02:54:17.000Z,0
2023-04-13T02:55:34.000Z,0
2023-04-13T02:56:50.000Z,0
2023-04-13T02:58:06.000Z,0
2023-04-13T02:59:23.000Z,0
2023-04-13T03:00:39.000Z,0
2023-04-13T03:01:56.000Z,0
2023-04-13T03:03:12.000Z,0
2023-04-13T03:05:45.000Z,0
2023-04-13T03:07:02.000Z,0
2023-04-13T03:08:18.000Z,0
2023-04-13T03:09:35.000Z,0
2023-04-13T03:10:51.000Z,0
2023-04-13T03:12:08.000Z,0
2023-04-13T03:13:24.000Z,0
2023-04-13T03:14:40.000Z,0
2023-04-13T03:15:57.000Z,0
2023-04-13T03:17:13.000Z,0
2023-04-13T03:18:30.000Z,0
2023-04-13T03:19:47.000Z,0
2023-04-13T03:21:03.000Z,0
2023-04-13T03:22:20.000Z,0
2023-04-13T03:23:36.000Z,0
2023-04-13T03:24:53.000Z,0
2023-04-13T03:26:09.000Z,0
2023-04-13T03:27:26.000Z,0
2023-04-13T03:28:42.000Z,0
2023-04-13T03:29:59.000Z,0
2023-04-13T03:31:15.000Z,0
2023-04-13T03:32:31.000Z,0
2023-04-13T03:33:48.000Z,0
2023-04-13T03:35:04.000Z,0
2023-04-13T03:36:21.000Z,0
2023-04-13T03:37:37.000Z,0
2023-04-13T03:38:54.000Z,0
2023-04-13T03:40:10.000Z,0
2023-04-13T03:41:27.000Z,0
2023-04-13T03:44:00.000Z,0
2023-04-13T03:45:17.000Z,0
2023-04-13T03:46:33.000Z,0
2023-04-13T03:47:49.000Z,0
2023-04-13T03:49:05.000Z,0
2023-04-13T03:50:22.000Z,0
2023-04-13T03:51:39.000Z,0
2023-04-13T03:52:55.000Z,0
2023-04-13T03:54:12.000Z,0
2023-04-13T03:55:28.000Z,0
2023-04-13T03:56:45.000Z,0
2023-04-13T03:58:01.000Z,0
2023-04-13T03:59:18.000Z,0
2023-04-13T04:00:34.000Z,0
2023-04-13T04:01:51.000Z,0
2023-04-13T04:03:07.000Z,0
2023-04-13T04:04:23.000Z,0
2023-04-13T04:05:40.000Z,0
2023-04-13T04:06:56.000Z,0
2023-04-13T04:09:29.000Z,4
2023-04-13T04:10:46.000Z,4
2023-04-13T04:12:02.000Z,4
2023-04-13T04:13:19.000Z,4
2023-04-13T04:14:35.000Z,8
2023-04-13T04:15:52.000Z,8
2023-04-13T04:17:09.000Z,8
2023-04-13T04:18:25.000Z,12
2023-04-13T04:19:42.000Z,12
2023-04-13T04:20:57.000Z,16
2023-04-13T04:22:14.000Z,20
2023-04-13T04:23:30.000Z,24
2023-04-13T04:24:47.000Z,28
2023-04-13T04:26:04.000Z,36
2023-04-13T04:27:20.000Z,44
2023-04-13T04:28:37.000Z,52
2023-04-13T04:29:53.000Z,60
2023-04-13T04:31:10.000Z,72
2023-04-13T04:32:26.000Z,84
2023-04-13T04:33:43.000Z,100
2023-04-13T04:34:59.000Z,116
2023-04-13T04:37:32.000Z,156
2023-04-13T04:38:48.000Z,176
2023-04-13T04:40:05.000Z,208
2023-04-13T04:41:21.000Z,236
2023-04-13T04:42:38.000Z,268
2023-04-13T04:43:54.000Z,304
2023-04-13T04:45:11.000Z,344
2023-04-13T04:46:27.000Z,392
2023-04-13T04:47:44.000Z,468
2023-04-13T04:51:34.000Z,632
2023-04-13T04:52:49.000Z,688
2023-04-13T04:54:05.000Z,760
2023-04-13T04:56:38.000Z,896
2023-04-13T04:57:55.000Z,1008
2023-04-13T04:59:11.000Z,1120
2023-04-13T05:00:28.000Z,1240
2023-04-13T05:01:44.000Z,1380
2023-04-13T05:03:01.000Z,1528
2023-04-13T05:04:18.000Z,1652
2023-04-13T05:05:34.000Z,1740
2023-04-13T05:06:51.000Z,1828
2023-04-13T05:09:24.000Z,1996
2023-04-13T05:10:40.000Z,2076
2023-04-13T05:13:13.000Z,2312
2023-04-13T05:14:29.000Z,2432
2023-04-13T05:15:44.000Z,2552
2023-04-13T05:17:01.000Z,2668
2023-04-13T05:18:17.000Z,2800
2023-04-13T05:19:34.000Z,2896
2023-04-13T05:20:51.000Z,2968
2023-04-13T05:22:07.000Z,3052
2023-04-13T05:25:57.000Z,3152
2023-04-13T05:29:46.000Z,4096
2023-04-13T05:32:19.000Z,4928
2023-04-13T05:39:58.000Z,7428
2023-04-13T05:41:14.000Z,7700
2023-04-13T05:42:31.000Z,7856
2023-04-13T05:43:47.000Z,7748
2023-04-13T05:45:04.000Z,7832
2023-04-13T05:46:21.000Z,8168
2023-04-13T05:47:37.000Z,8488
2023-04-13T05:48:54.000Z,8884
2023-04-13T05:50:09.000Z,9128
2023-04-13T05:52:42.000Z,8836
2023-04-13T05:53:59.000Z,8900
2023-04-13T05:55:16.000Z,9048
2023-04-13T05:56:32.000Z,8932
2023-04-13T05:59:05.000Z,9184
2023-04-13T06:00:22.000Z,9532
2023-04-13T06:01:38.000Z,9900
2023-04-13T06:04:11.000Z,10380
2023-04-13T06:05:28.000Z,10796
2023-04-13T06:06:44.000Z,11004
2023-04-13T06:08:00.000Z,10964
2023-04-13T06:09:17.000Z,10452
2023-04-13T06:13:06.000Z,10328
2023-04-13T06:14:23.000Z,10632
2023-04-13T06:15:39.000Z,10712
2023-04-13T06:16:56.000Z,10320
2023-04-13T06:18:13.000Z,10008
2023-04-13T06:19:29.000Z,10220
2023-04-13T06:20:46.000Z,10112
2023-04-13T06:22:02.000Z,9788
2023-04-13T06:24:34.000Z,9640
2023-04-13T06:25:51.000Z,9668
2023-04-13T06:27:08.000Z,9640
2023-04-13T06:28:24.000Z,9620
2023-04-13T06:29:41.000Z,9572
2023-04-13T06:30:57.000Z,9588
2023-04-13T06:32:14.000Z,9724
2023-04-13T06:33:30.000Z,9892
2023-04-13T06:34:47.000Z,9960
2023-04-13T06:41:09.000Z,9896
2023-04-13T06:42:25.000Z,9764
2023-04-13T06:43:42.000Z,10040
2023-04-13T06:44:58.000Z,10584
2023-04-13T06:46:15.000Z,11624
2023-04-13T06:47:31.000Z,12876
2023-04-13T06:48:48.000Z,13940
2023-04-13T06:52:38.000Z,14664
2023-04-13T06:55:11.000Z,16960
2023-04-13T06:56:27.000Z,16416
2023-04-13T06:57:44.000Z,15108
2023-04-13T07:02:49.000Z,14416
2023-04-13T07:04:06.000Z,14604
2023-04-13T07:05:22.000Z,14288
2023-04-13T07:07:55.000Z,14028
2023-04-13T07:09:12.000Z,14188
2023-04-13T07:14:18.000Z,16544
2023-04-13T07:16:50.000Z,17696
2023-04-13T07:19:23.000Z,21184
2023-04-13T07:20:40.000Z,23584
2023-04-13T07:21:56.000Z,23872
2023-04-13T07:23:13.000Z,24640
2023-04-13T07:24:30.000Z,26048
2023-04-13T07:25:46.000Z,27200
2023-04-13T07:28:19.000Z,52288
2023-04-13T07:30:52.000Z,23264
2023-04-13T07:32:08.000Z,22784
2023-04-13T07:34:41.000Z,22688
2023-04-13T07:37:14.000Z,22368
2023-04-13T07:46:10.000Z,13696
2023-04-13T07:50:00.000Z,20960
2023-04-13T07:53:48.000Z,21152
2023-04-13T07:56:21.000Z,14916
2023-04-13T08:05:17.000Z,21888
2023-04-13T08:06:34.000Z,23712
2023-04-13T08:10:23.000Z,50336
2023-04-13T08:12:56.000Z,35232
2023-04-13T08:16:45.000Z,41600
2023-04-13T08:19:18.000Z,64736
2023-04-13T08:21:51.000Z,40384
2023-04-13T08:25:41.000Z,63776
2023-04-13T08:26:57.000Z,75520
2023-04-13T08:29:30.000Z,71872
2023-04-13T08:30:47.000Z,32736
2023-04-13T08:34:36.000Z,26400
2023-04-13T08:35:53.000Z,21792
2023-04-13T08:37:09.000Z,18848
2023-04-13T08:38:26.000Z,18528
2023-04-13T08:39:42.000Z,19232
2023-04-13T08:43:32.000Z,24960
2023-04-13T08:46:04.000Z,31904
2023-04-13T08:51:10.000Z,40928
2023-04-13T08:53:43.000Z,37728
2023-04-13T08:55:00.000Z,42336
2023-04-13T08:58:50.000Z,57568
2023-04-13T09:00:06.000Z,63936
2023-04-13T09:01:22.000Z,62688
2023-04-13T09:03:55.000Z,42624
2023-04-13T09:05:12.000Z,78848
2023-04-13T09:07:45.000Z,49696
2023-04-13T09:09:01.000Z,40992
2023-04-13T09:11:34.000Z,42144
2023-04-13T09:12:51.000Z,38336
2023-04-13T09:14:07.000Z,53920
2023-04-13T09:16:40.000Z,32128
2023-04-13T09:17:56.000Z,34656
2023-04-13T09:19:13.000Z,37600
2023-04-13T09:20:29.000Z,37120
2023-04-13T09:21:46.000Z,37856
2023-04-13T09:23:02.000Z,25664
2023-04-13T09:24:19.000Z,23488
2023-04-13T09:25:35.000Z,25152
2023-04-13T09:26:52.000Z,27232
2023-04-13T09:29:25.000Z,24224
2023-04-13T09:30:42.000Z,21984
2023-04-13T09:31:58.000Z,22016
2023-04-13T09:33:15.000Z,23552
2023-04-13T09:34:30.000Z,24352
2023-04-13T09:35:47.000Z,26496
2023-04-13T09:37:03.000Z,29216
2023-04-13T09:39:37.000Z,31104
2023-04-13T09:40:53.000Z,34656
2023-04-13T09:43:26.000Z,38528
2023-04-13T09:45:59.000Z,48160
2023-04-13T09:51:05.000Z,43296
2023-04-13T09:52:21.000Z,96256
2023-04-13T09:53:38.000Z,79584
2023-04-13T09:54:54.000Z,114624
2023-04-13T10:00:00.000Z,116416
2023-04-13T10:01:17.000Z,37696
2023-04-13T10:02:33.000Z,40992
2023-04-13T10:03:50.000Z,39712
2023-04-13T10:06:23.000Z,22496
2023-04-13T10:07:40.000Z,23136
2023-04-13T10:10:12.000Z,24416
2023-04-13T10:14:02.000Z,34944
2023-04-13T10:17:51.000Z,36736
2023-04-13T10:19:08.000Z,99904
2023-04-13T10:20:24.000Z,98432
2023-04-13T10:21:41.000Z,95552
2023-04-13T10:22:57.000Z,89152
2023-04-13T10:24:14.000Z,88096
2023-04-13T10:25:30.000Z,90240
2023-04-13T10:26:46.000Z,97760
2023-04-13T10:29:19.000Z,99328
2023-04-13T10:31:52.000Z,96000
2023-04-13T10:33:09.000Z,104128
2023-04-13T10:36:58.000Z,48384
2023-04-13T10:38:15.000Z,94944
2023-04-13T10:39:32.000Z,81536
2023-04-13T10:40:48.000Z,109472
2023-04-13T10:42:04.000Z,109408
2023-04-13T10:43:20.000Z,41728
2023-04-13T10:44:37.000Z,109376
2023-04-13T10:48:27.000Z,37632
2023-04-13T10:49:43.000Z,45216
2023-04-13T10:54:49.000Z,103904
2023-04-13T10:59:55.000Z,121440
2023-04-13T11:02:28.000Z,40160
2023-04-13T11:08:50.000Z,122208
2023-04-13T11:10:06.000Z,77472
2023-04-13T11:12:39.000Z,122496
2023-04-13T11:15:12.000Z,40576
2023-04-13T11:16:29.000Z,36128
2023-04-13T11:17:46.000Z,34528
2023-04-13T11:19:02.000Z,38336
2023-04-13T11:21:35.000Z,39040
2023-04-13T11:22:52.000Z,39712
2023-04-13T11:25:25.000Z,36800
2023-04-13T11:26:41.000Z,36256
2023-04-13T11:33:03.000Z,77888
2023-04-13T11:35:36.000Z,73504
2023-04-13T11:38:09.000Z,80256
2023-04-13T11:40:42.000Z,78816
2023-04-13T11:45:49.000Z,79712
2023-04-13T11:49:37.000Z,86304
2023-04-13T11:50:54.000Z,83904
2023-04-13T11:52:11.000Z,82208
2023-04-13T11:53:27.000Z,58688
2023-04-13T11:57:17.000Z,38592
2023-04-13T11:59:50.000Z,35200
2023-04-13T12:03:39.000Z,36672
2023-04-13T12:04:55.000Z,42400
2023-04-13T12:06:12.000Z,49280
2023-04-13T12:08:45.000Z,40480
2023-04-13T12:10:01.000Z,35488
2023-04-13T12:11:18.000Z,30752
2023-04-13T12:15:07.000Z,20288
2023-04-13T12:17:41.000Z,28032
2023-04-13T12:18:57.000Z,34016
2023-04-13T12:21:30.000Z,42208
2023-04-13T12:24:02.000Z,66368
2023-04-13T12:25:19.000Z,58592
2023-04-13T12:26:36.000Z,50976
2023-04-13T12:27:52.000Z,87968
2023-04-13T12:30:25.000Z,95680
2023-04-13T12:31:42.000Z,92192
2023-04-13T12:38:04.000Z,89184
2023-04-13T12:39:20.000Z,75744
2023-04-13T12:40:37.000Z,67808
2023-04-13T12:43:10.000Z,47872
2023-04-13T12:44:26.000Z,27712
2023-04-13T12:45:43.000Z,25248
2023-04-13T12:46:59.000Z,25120
2023-04-13T12:49:32.000Z,22112
2023-04-13T12:53:22.000Z,20608
2023-04-13T12:59:45.000Z,40672
2023-04-13T13:01:01.000Z,54688
2023-04-13T13:02:17.000Z,97920
2023-04-13T13:03:34.000Z,94624
2023-04-13T13:04:50.000Z,90624
2023-04-13T13:06:07.000Z,87744
2023-04-13T13:07:23.000Z,84576
2023-04-13T13:08:40.000Z,85600
2023-04-13T13:09:56.000Z,86944
2023-04-13T13:11:13.000Z,80192
2023-04-13T13:12:29.000Z,80032
2023-04-13T13:15:02.000Z,80384
2023-04-13T13:16:19.000Z,34368
2023-04-13T13:17:36.000Z,89504
2023-04-13T13:18:51.000Z,24928
2023-04-13T13:20:08.000Z,25280
2023-04-13T13:23:58.000Z,20192
2023-04-13T13:25:14.000Z,20512
2023-04-13T13:27:47.000Z,20704
2023-04-13T13:29:04.000Z,20800
2023-04-13T13:30:20.000Z,23840
2023-04-13T13:31:37.000Z,22528
2023-04-13T13:32:53.000Z,23008
2023-04-13T13:34:10.000Z,26528
2023-04-13T13:36:42.000Z,29920
2023-04-13T13:37:59.000Z,32480
2023-04-13T13:39:15.000Z,77152
2023-04-13T13:40:32.000Z,83200
2023-04-13T13:43:05.000Z,90016
2023-04-13T13:44:21.000Z,32864
2023-04-13T13:46:54.000Z,29536
2023-04-13T13:48:11.000Z,28832
2023-04-13T13:49:28.000Z,27520
2023-04-13T13:50:44.000Z,27584
2023-04-13T13:52:00.000Z,27232
2023-04-13T13:53:16.000Z,28608
2023-04-13T13:55:49.000Z,45184
2023-04-13T13:57:06.000Z,29248
2023-04-13T13:58:23.000Z,56448
2023-04-13T14:00:56.000Z,23360
2023-04-13T14:02:12.000Z,22496
2023-04-13T14:03:29.000Z,22400
2023-04-13T14:04:45.000Z,22944
2023-04-13T14:07:18.000Z,23584
2023-04-13T14:08:34.601Z,23808
2023-04-13T14:11:07.000Z,23904
2023-04-13T14:12:24.000Z,24480
2023-04-13T14:14:57.000Z,24160
2023-04-13T14:16:13.000Z,24832
2023-04-13T14:17:30.000Z,28096
2023-04-13T14:18:46.000Z,80576
2023-04-13T14:21:19.000Z,74528
2023-04-13T14:22:36.000Z,70272
2023-04-13T14:23:53.000Z,62048
2023-04-13T14:25:08.000Z,71488
2023-04-13T14:26:25.000Z,68736
2023-04-13T14:27:41.000Z,69152
2023-04-13T14:28:58.000Z,70912
2023-04-13T14:30:14.000Z,72608
2023-04-13T14:31:31.000Z,74656
2023-04-13T14:32:48.000Z,76672
2023-04-13T14:34:04.000Z,75808
2023-04-13T14:35:21.000Z,75008
2023-04-13T14:36:37.000Z,74656
2023-04-13T14:37:54.000Z,22880
2023-04-13T14:39:10.000Z,23232
2023-04-13T14:40:27.000Z,76608
2023-04-13T14:41:43.000Z,26752
2023-04-13T14:42:58.000Z,27264
2023-04-13T14:44:15.000Z,25312
2023-04-13T14:45:32.000Z,24960
2023-04-13T14:46:48.000Z,24256
2023-04-13T14:48:05.000Z,23488
2023-04-13T14:49:21.000Z,23200
2023-04-13T14:50:38.000Z,23808
2023-04-13T14:51:54.000Z,24032
2023-04-13T14:53:11.000Z,24768
2023-04-13T14:54:27.000Z,34304
2023-04-13T14:55:43.000Z,61600
2023-04-13T14:56:59.000Z,31200
2023-04-13T14:58:16.000Z,29440
2023-04-13T14:59:32.000Z,29152
2023-04-13T15:00:49.000Z,39008
2023-04-13T15:02:05.000Z,63904
2023-04-13T15:04:38.000Z,23360
2023-04-13T15:05:55.000Z,22528
2023-04-13T15:07:11.000Z,22048
2023-04-13T15:08:28.000Z,21312
2023-04-13T15:09:44.000Z,20064
2023-04-13T15:11:01.000Z,19008
2023-04-13T15:12:17.000Z,18432
2023-04-13T15:13:33.762Z,18112
2023-04-13T15:14:50.000Z,18496
2023-04-13T15:16:06.000Z,21312
2023-04-13T15:17:23.000Z,50496
2023-04-13T15:18:39.000Z,47744
2023-04-13T15:19:56.000Z,27296
2023-04-13T15:21:12.000Z,21280
2023-04-13T15:22:29.000Z,21472
2023-04-13T15:23:46.000Z,21280
2023-04-13T15:25:02.000Z,20736
2023-04-13T15:26:18.000Z,19648
2023-04-13T15:27:34.000Z,18592
2023-04-13T15:28:51.000Z,18112
2023-04-13T15:30:08.000Z,18592
2023-04-13T15:31:24.000Z,19968
2023-04-13T15:32:41.000Z,18528
2023-04-13T15:33:57.000Z,18848
2023-04-13T15:35:14.000Z,43360
2023-04-13T15:36:30.000Z,45856
2023-04-13T15:37:47.000Z,48288
2023-04-13T15:39:03.000Z,48352
2023-04-13T15:40:20.000Z,51712
2023-04-13T15:41:36.000Z,53376
2023-04-13T15:42:52.000Z,41952
2023-04-13T15:44:09.000Z,23360
2023-04-13T15:45:25.000Z,39552
2023-04-13T15:46:42.000Z,47136
2023-04-13T15:47:58.000Z,27872
2023-04-13T15:49:15.000Z,22496
2023-04-13T15:50:31.000Z,23136
2023-04-13T15:51:48.000Z,27424
2023-04-13T15:53:04.000Z,38304
2023-04-13T15:54:21.000Z,20864
2023-04-13T15:55:38.000Z,18080
2023-04-13T15:56:54.000Z,18240
2023-04-13T15:58:11.000Z,32320
2023-04-13T15:59:26.000Z,22080
2023-04-13T16:00:43.000Z,13968
2023-04-13T16:02:00.000Z,13432
2023-04-13T16:03:16.000Z,13136
2023-04-13T16:04:33.000Z,13700
2023-04-13T16:05:49.000Z,14292
2023-04-13T16:07:06.000Z,14532
2023-04-13T16:08:22.000Z,14540
2023-04-13T16:09:39.000Z,14440
2023-04-13T16:10:55.000Z,14420
2023-04-13T16:12:12.000Z,14688
2023-04-13T16:13:28.000Z,14616
2023-04-13T16:14:45.000Z,14332
2023-04-13T16:16:01.000Z,14248
2023-04-13T16:17:17.000Z,14772
2023-04-13T16:18:34.000Z,25760
2023-04-13T16:19:50.000Z,35776
2023-04-13T16:21:07.000Z,34688
2023-04-13T16:22:23.000Z,33024
2023-04-13T16:23:40.000Z,32160
2023-04-13T16:24:56.000Z,26720
2023-04-13T16:26:13.000Z,24128
2023-04-13T16:27:30.000Z,21632
2023-04-13T16:28:46.000Z,20576
2023-04-13T16:30:03.000Z,21056
2023-04-13T16:31:19.000Z,19936
2023-04-13T16:32:36.000Z,20640
2023-04-13T16:33:51.000Z,22112
2023-04-13T16:35:08.000Z,22400
2023-04-13T16:36:25.000Z,20160
2023-04-13T16:37:41.000Z,19936
2023-04-13T16:38:58.000Z,19968
2023-04-13T16:40:14.000Z,18208
2023-04-13T16:41:31.000Z,17632
2023-04-13T16:42:47.000Z,16320
2023-04-13T16:44:04.000Z,17504
2023-04-13T16:45:20.000Z,16992
2023-04-13T16:46:37.000Z,17568
2023-04-13T16:47:53.000Z,19232
2023-04-13T16:49:10.000Z,19584
2023-04-13T16:50:26.000Z,16416
2023-04-13T16:51:42.000Z,13132
2023-04-13T16:52:59.000Z,9084
2023-04-13T16:54:15.000Z,10984
2023-04-13T16:55:32.000Z,15260
2023-04-13T16:56:48.000Z,8532
2023-04-13T16:58:05.000Z,7964
2023-04-13T16:59:21.000Z,7552
2023-04-13T17:00:38.000Z,7380
2023-04-13T17:01:55.000Z,7352
2023-04-13T17:03:11.000Z,7308
2023-04-13T17:04:28.000Z,7216
2023-04-13T17:05:44.000Z,7108
2023-04-13T17:07:00.000Z,7244
2023-04-13T17:08:17.000Z,8024
2023-04-13T17:09:33.000Z,7032
2023-04-13T17:10:50.000Z,6288
2023-04-13T17:12:06.000Z,6128
2023-04-13T17:13:23.000Z,5952
2023-04-13T17:14:39.000Z,5756
2023-04-13T17:15:56.000Z,5524
2023-04-13T17:17:12.000Z,5308
2023-04-13T17:18:29.000Z,5140
2023-04-13T17:19:45.000Z,5008
2023-04-13T17:21:02.000Z,4904
2023-04-13T17:22:18.000Z,4792
2023-04-13T17:23:34.000Z,4700
2023-04-13T17:24:51.000Z,4672
2023-04-13T17:26:07.000Z,5332
2023-04-13T17:27:24.000Z,4432
2023-04-13T17:28:40.000Z,4324
2023-04-13T17:29:57.000Z,4184
2023-04-13T17:31:13.000Z,4036
2023-04-13T17:32:30.000Z,3892
2023-04-13T17:33:47.000Z,3756
2023-04-13T17:35:03.000Z,3632
2023-04-13T17:36:20.000Z,3520
2023-04-13T17:37:36.000Z,3388
2023-04-13T17:38:53.000Z,3244
2023-04-13T17:40:08.000Z,3112
2023-04-13T17:41:25.000Z,2980
2023-04-13T17:42:42.000Z,2856
2023-04-13T17:43:58.000Z,2784
2023-04-13T17:45:15.000Z,2688
2023-04-13T17:46:31.000Z,2548
2023-04-13T17:47:48.000Z,2400
2023-04-13T17:49:04.000Z,2244
2023-04-13T17:50:21.000Z,2096
2023-04-13T17:51:37.000Z,1960
2023-04-13T17:52:54.000Z,1836
2023-04-13T17:54:10.000Z,1700
2023-04-13T17:55:27.000Z,1572
2023-04-13T17:56:43.000Z,1432
2023-04-13T17:57:59.000Z,1300
2023-04-13T17:59:16.000Z,1164
2023-04-13T18:00:32.000Z,1032
2023-04-13T18:01:49.000Z,916
2023-04-13T18:03:05.000Z,808
2023-04-13T18:04:22.000Z,720
2023-04-13T18:05:39.000Z,648
2023-04-13T18:06:55.000Z,584
2023-04-13T18:08:12.000Z,516
2023-04-13T18:09:28.000Z,456
2023-04-13T18:10:45.000Z,404
2023-04-13T18:12:01.000Z,352
2023-04-13T18:13:17.000Z,312
2023-04-13T18:15:50.000Z,244
2023-04-13T18:17:07.000Z,212
2023-04-13T18:18:23.000Z,184
2023-04-13T18:19:40.000Z,164
2023-04-13T18:20:56.000Z,144
2023-04-13T18:22:13.000Z,128
2023-04-13T18:23:29.000Z,116
2023-04-13T18:24:46.000Z,104
2023-04-13T18:26:02.000Z,92
2023-04-13T18:27:19.000Z,84
2023-04-13T18:28:35.000Z,72
2023-04-13T18:29:51.000Z,68
2023-04-13T18:31:08.000Z,56
2023-04-13T18:32:24.000Z,52
2023-04-13T18:33:41.000Z,40
2023-04-13T18:34:57.000Z,36
2023-04-13T18:36:14.000Z,32
2023-04-13T18:37:30.000Z,24
2023-04-13T18:38:47.000Z,24
2023-04-13T18:40:04.000Z,20
2023-04-13T18:41:20.000Z,16
2023-04-13T18:42:37.000Z,16
2023-04-13T18:43:53.000Z,12
2023-04-13T18:45:10.000Z,8
2023-04-13T18:46:26.000Z,8
2023-04-13T18:47:42.000Z,4
2023-04-13T18:48:59.000Z,8
2023-04-13T18:50:15.000Z,4
2023-04-13T18:51:32.000Z,4
2023-04-13T18:52:48.000Z,4
2023-04-13T18:54:05.000Z,0
2023-04-13T18:55:21.000Z,4
2023-04-13T18:56:38.000Z,4
2023-04-13T18:57:54.000Z,0
2023-04-13T18:59:11.000Z,0
2023-04-13T19:00:27.000Z,0
2023-04-13T19:01:44.000Z,0
2023-04-13T19:03:00.000Z,0
2023-04-13T19:04:16.000Z,0
2023-04-13T19:05:33.000Z,0
2023-04-13T19:06:49.000Z,0
2023-04-13T19:08:06.000Z,0
2023-04-13T19:09:22.000Z,0
2023-04-13T19:10:39.000Z,0
2023-04-13T19:11:56.000Z,0
2023-04-13T19:13:12.000Z,0
2023-04-13T19:14:29.000Z,0
2023-04-13T19:15:45.000Z,0
2023-04-13T19:17:02.000Z,0
2023-04-13T19:18:18.000Z,0
2023-04-13T19:19:34.000Z,0
2023-04-13T19:20:51.000Z,0
2023-04-13T19:22:07.000Z,0
2023-04-13T19:23:24.000Z,0
2023-04-13T19:24:40.000Z,0
2023-04-13T19:25:57.000Z,0
2023-04-13T19:27:13.000Z,0
2023-04-13T19:28:30.000Z,0
2023-04-13T19:29:46.000Z,0
2023-04-13T19:31:03.000Z,0
2023-04-13T19:32:19.000Z,0
2023-04-13T19:33:36.000Z,0
2023-04-13T19:34:52.000Z,0
2023-04-13T19:36:08.000Z,0
2023-04-13T19:37:25.000Z,0
2023-04-13T19:38:41.000Z,0
2023-04-13T19:39:58.000Z,0
2023-04-13T19:41:14.000Z,0
2023-04-13T19:42:30.000Z,0
2023-04-13T19:43:47.000Z,0
2023-04-13T19:45:03.000Z,0
2023-04-13T19:46:20.000Z,0
2023-04-13T19:47:36.000Z,0
2023-04-13T19:48:53.000Z,0
2023-04-13T19:50:10.000Z,0
2023-04-13T19:51:26.000Z,0
2023-04-13T19:52:43.000Z,0
2023-04-13T19:53:59.000Z,0
2023-04-13T19:55:16.000Z,0
2023-04-13T19:56:32.000Z,0
2023-04-13T19:57:49.000Z,0
2023-04-13T19:59:05.000Z,0
2023-04-13T20:00:21.000Z,0
2023-04-13T20:01:38.000Z,0
2023-04-13T20:02:54.000Z,0
2023-04-13T20:04:11.000Z,0
2023-04-13T20:05:27.000Z,0
2023-04-13T20:06:44.000Z,0
2023-04-13T20:08:00.000Z,0
2023-04-13T20:09:17.000Z,0
2023-04-13T20:10:33.000Z,0
2023-04-13T20:11:50.000Z,0
2023-04-13T20:13:06.000Z,0
2023-04-13T20:14:23.000Z,0
2023-04-13T20:15:39.000Z,0
2023-04-13T20:16:55.000Z,0
2023-04-13T20:18:12.000Z,0
2023-04-13T20:19:28.000Z,0
2023-04-13T20:20:45.000Z,0
2023-04-13T20:22:02.000Z,0
2023-04-13T20:23:18.000Z,0
2023-04-13T20:24:35.000Z,0
2023-04-13T20:25:51.000Z,0
2023-04-13T20:27:08.000Z,0
2023-04-13T20:28:24.000Z,0
2023-04-13T20:29:41.000Z,0
2023-04-13T20:30:57.000Z,0
2023-04-13T20:32:13.000Z,0
2023-04-13T20:33:30.000Z,0
2023-04-13T20:34:46.000Z,0
2023-04-13T20:36:03.000Z,0
2023-04-13T20:37:19.000Z,0
2023-04-13T20:38:36.000Z,0
2023-04-13T20:39:52.000Z,0
2023-04-13T20:41:09.000Z,0
2023-04-13T20:42:25.000Z,0
2023-04-13T20:43:42.000Z,0
2023-04-13T20:44:58.000Z,0
2023-04-13T20:46:15.000Z,0
2023-04-13T20:47:32.000Z,0
2023-04-13T20:48:47.000Z,0
2023-04-13T20:50:04.000Z,0
2023-04-13T20:51:20.000Z,0
2023-04-13T20:52:37.000Z,0
2023-04-13T20:53:53.000Z,0
2023-04-13T20:55:10.000Z,0
2023-04-13T20:56:27.000Z,0
2023-04-13T20:57:43.000Z,0
2023-04-13T20:59:00.000Z,0
2023-04-13T21:00:16.000Z,0
2023-04-13T21:01:33.000Z,0
2023-04-13T21:02:49.000Z,0
2023-04-13T21:04:06.000Z,0
2023-04-13T21:05:22.000Z,0
2023-04-13T21:06:38.000Z,0
2023-04-13T21:07:55.000Z,0
2023-04-13T21:09:11.000Z,0
2023-04-13T21:10:28.000Z,0